MAE weather

Public forecast

Using degrees Celsius for public forecast. Weather courtesy of forecast.io.

Closest aviation weather report (METAR) to Mendoza Airpark

Closest report is El Plumerillo Airport, 4.5 nm (8.3 km) ENE. Retrieved 2020/08/15 14:00 UTC (34 minutes ago):

SAME 151400Z 14006KT CAVOK 12/M07 Q1014

Closest aviation forecast (TAF) to Mendoza Airpark

Closest forecast is El Plumerillo Airport, 4.5 nm (8.3 km) ENE. Retrieved 2020/08/15 12:06 UTC (2 hours ago):

TAF TAF SAME 151100Z 1512/1612 05005KT CAVOK TX16/1520Z TN00/1611Z